»·PEaware :: N915TB KOXR-L00

N915TB :: KOXR-L00

FLIGHT INFORMATION

Flight Status: Arrived
Operator: Privately registered:
United States
More flights under this callsign
Pilot: Jake M. (20491)
Aircraft: SOCATA TBM-900
(TBM9)
More flights by this aircraft type
Origin: KOXR Oxnard
United States
Destination: L00 Rosamond
United States
More flights between these airports :: More routes between these airports
Route: FIM V386 PMD
File this flight plan on PilotEdge
Remarks: TEC route VTUP4
Altitude:
(Current/Filed)
7,000ft
Speed:
(Current/Filed)
250kts
Departed: 21-Aug-19 01:48 PM
Arrived: 21-Aug-19 02:16 PM
Distance/Time
Traveled:
60nm/0:27
Distance/Time
To Go:
Arrived

Flight Plot

Page will automatically refresh every two minutes.

Flight plan parsing failed; only flown route is shown


Map Options




Map Legend


Flown Route
Filed Route
Departure Airport
Arrival Airport
Navaid (VOR, NDB)
Fix

Horizontal Profiles

Position Reports

Time Latitude Longitude Heading Altitude Ground
Speed
21-Aug-19 13:39 34.199589 -119.211365 158 33ft 0kts
21-Aug-19 13:40 34.199589 -119.211365 158 33ft 0kts
21-Aug-19 13:41 34.199589 -119.211365 158 33ft 0kts
21-Aug-19 13:42 34.199589 -119.211365 158 33ft 0kts
21-Aug-19 13:43 34.199589 -119.211365 158 33ft 0kts
21-Aug-19 13:44 34.199589 -119.211365 158 33ft 0kts
21-Aug-19 13:45 34.199787 -119.206532 90 36ft 27kts
21-Aug-19 13:46 34.199791 -119.197655 50 42ft 1kts
21-Aug-19 13:47 34.200527 -119.197552 346 42ft 8kts
21-Aug-19 13:48 34.200754 -119.220069 266 363ft 130kts
21-Aug-19 13:49 34.197615 -119.269578 267 2094ft 154kts
21-Aug-19 13:50 34.194742 -119.322938 267 3896ft 163kts
21-Aug-19 13:51 34.194464 -119.377597 307 5709ft 166kts
21-Aug-19 13:52 34.226170 -119.352647 68 7040ft 210kts
21-Aug-19 13:52 34.243678 -119.290929 69 7014ft 249kts
21-Aug-19 13:54 34.270235 -119.195316 70 7001ft 260kts
21-Aug-19 13:54 34.289523 -119.125582 70 7000ft 262kts
21-Aug-19 13:55 34.312704 -119.041514 70 7000ft 262kts
21-Aug-19 13:57 34.339741 -118.943166 70 7000ft 263kts
21-Aug-19 13:57 34.359488 -118.873013 66 6998ft 263kts
21-Aug-19 13:58 34.387461 -118.790795 66 7000ft 263kts
21-Aug-19 14:00 34.420107 -118.694518 66 7001ft 263kts
21-Aug-19 14:00 34.443297 -118.625904 66 7003ft 263kts
21-Aug-19 14:01 34.471056 -118.543604 66 7018ft 263kts
21-Aug-19 14:02 34.498754 -118.461255 66 7018ft 264kts
21-Aug-19 14:03 34.526459 -118.378666 66 7018ft 264kts
21-Aug-19 14:04 34.553842 -118.296822 67 7018ft 264kts
21-Aug-19 14:05 34.581493 -118.213950 67 7018ft 264kts
21-Aug-19 14:06 34.609038 -118.131179 67 7018ft 264kts
21-Aug-19 14:07 34.655683 -118.077155 341 6962ft 260kts
21-Aug-19 14:08 34.719681 -118.115997 333 6764ft 255kts
21-Aug-19 14:09 34.785290 -118.152419 353 5520ft 263kts
21-Aug-19 14:10 34.855425 -118.151929 8 4100ft 240kts
21-Aug-19 14:11 34.870246 -118.185656 270 3546ft 142kts
21-Aug-19 14:12 34.880082 -118.226841 353 3655ft 150kts
21-Aug-19 14:13 34.895986 -118.182973 86 3406ft 165kts
21-Aug-19 14:14 34.871625 -118.181518 258 2751ft 111kts
21-Aug-19 14:15 34.870460 -118.205270 270 2418ft 25kts
21-Aug-19 14:16 34.869994 -118.205412 0 2418ft 0kts
21-Aug-19 14:17 34.869994 -118.205412 0 2418ft 0kts
21-Aug-19 14:18 34.869994 -118.205412 0 2418ft 0kts
21-Aug-19 14:19 34.869994 -118.205412 0 2418ft 0kts
21-Aug-19 14:20 34.870011 -118.205412 3 2418ft 2kts
21-Aug-19 14:21 34.870455 -118.205544 270 2418ft 63kts
21-Aug-19 14:22 34.847518 -118.230231 175 3560ft 165kts
21-Aug-19 14:23 34.804206 -118.204894 161 5460ft 172kts
21-Aug-19 14:24 34.759602 -118.181081 155 7341ft 179kts
21-Aug-19 14:25 34.714839 -118.155181 155 9637ft 178kts
21-Aug-19 14:26 34.668804 -118.132280 161 11400ft 183kts
21-Aug-19 14:27 34.620501 -118.109497 161 13017ft 187kts
21-Aug-19 14:28 34.571021 -118.087512 161 14258ft 194kts
21-Aug-19 14:29 34.515547 -118.061450 160 13992ft 233kts

Navigation Log

Ident Type
Flight plan parsing failed, navigation log unavailable